Time;durP1;ratioP1;P1;durP2;ratioP2;P2;SDS_P1;SDS_P2;PMS_P1;PMS_P2;Temp;Humidity;BMP_temperature;BMP_pressure;BME280_temperature;BME280_humidity;BME280_pressure;Samples;Min_cycle;Max_cycle;Signal;HPM_P1;HPM_P2
2022/02/07 00:03:04;;;;;;;0.38;0.30;;;;;;;4.12;85.42;98117.78;10546662;28;20036;-68
2022/02/07 00:08:09;;;;;;;0.57;0.28;;;;;;;3.99;86.69;98166.78;10546183;28;20100;-68
2022/02/07 00:13:11;;;;;;;0.65;0.20;;;;;;;2.68;84.60;98190.03;10545782;28;20436;-69
2022/02/07 00:18:13;;;;;;;0.10;0.10;;;;;;;2.15;89.11;98178.59;10545598;28;20051;-68
2022/02/07 00:23:14;;;;;;;0.52;0.10;;;;;;;2.09;91.09;98179.63;10545873;28;20036;-69
2022/02/07 00:28:16;;;;;;;0.93;0.20;;;;;;;2.05;92.56;98201.34;10544801;28;20044;-68
2022/02/07 00:33:19;;;;;;;0.20;0.08;;;;;;;1.84;91.09;98209.66;10545757;28;20089;-68
2022/02/07 00:38:22;;;;;;;0.30;0.20;;;;;;;1.70;93.27;98181.53;10544810;28;20388;-67
2022/02/07 00:48:28;;;;;;;1.13;0.20;;;;;;;2.13;93.40;98183.84;10544146;28;20490;-67
2022/02/07 00:53:31;;;;;;;0.40;0.20;;;;;;;2.28;92.77;98206.72;10527166;28;20127;-67
2022/02/07 00:58:33;;;;;;;0.70;0.50;;;;;;;2.47;93.20;98214.84;10544358;28;20060;-67
2022/02/07 01:03:35;;;;;;;1.17;0.47;;;;;;;2.56;93.02;98216.31;10524868;28;20044;-67
2022/02/07 01:08:42;;;;;;;1.58;0.70;;;;;;;2.63;93.38;98235.16;10527015;28;20051;-67
2022/02/07 01:14:03;;;;;;;1.10;0.60;;;;;;;2.71;92.32;98244.44;10525705;28;20131;-67
2022/02/07 01:19:31;;;;;;;1.27;0.40;;;;;;;2.49;91.22;98262.34;10526796;28;20048;-67
2022/02/07 01:56:54;;;;;;;3.03;0.70;;;;;;;2.48;87.31;98325.50;10315409;28;20448;-68
2022/02/07 02:01:56;;;;;;;4.28;0.98;;;;;;;2.58;84.62;98318.31;10316533;28;20051;-68
2022/02/07 02:06:58;;;;;;;3.72;0.88;;;;;;;2.46;83.22;98334.19;10313815;28;20049;-68
2022/02/07 02:12:02;;;;;;;4.32;0.57;;;;;;;2.41;83.30;98352.47;10330688;28;20125;-68
2022/02/07 02:38:27;;;;;;;2.58;0.50;;;;;;;2.44;81.67;98430.19;10313297;28;20043;-68
2022/02/07 02:49:01;;;;;;;1.98;0.50;;;;;;;2.48;81.83;98481.09;10321954;28;20415;-68
2022/02/07 02:54:09;;;;;;;2.60;0.60;;;;;;;2.46;82.84;98495.81;10503719;28;20040;-68
2022/02/07 02:59:11;;;;;;;3.70;0.70;;;;;;;2.34;85.71;98510.81;10531987;28;20052;-68
2022/02/07 03:04:14;;;;;;;7.43;1.05;;;;;;;2.23;86.99;98522.28;10529751;28;20036;-68
2022/02/07 03:09:18;;;;;;;2.33;0.70;;;;;;;2.20;86.21;98537.91;10529434;28;20048;-68
2022/02/07 03:14:34;;;;;;;3.78;1.10;;;;;;;2.28;84.87;98554.16;10530265;28;20111;-68
2022/02/07 03:19:40;;;;;;;4.70;0.63;;;;;;;2.48;83.73;98574.47;10530399;28;20044;-68
2022/02/07 03:24:42;;;;;;;3.13;0.50;;;;;;;2.53;82.17;98608.94;10530113;28;20044;-68
2022/02/07 03:29:51;;;;;;;2.80;0.50;;;;;;;2.36;82.76;98628.34;10525431;22;20040;-74
2022/02/07 03:34:58;;;;;;;2.40;0.47;;;;;;;2.31;81.48;98661.28;10530318;28;20051;-75
2022/02/07 03:40:00;;;;;;;1.63;0.40;;;;;;;2.28;81.91;98669.97;10546584;28;20090;-74
2022/02/07 03:45:04;;;;;;;1.45;0.43;;;;;;;2.22;80.35;98677.88;10528725;28;20040;-74
2022/02/07 03:50:10;;;;;;;5.38;0.60;;;;;;;2.11;80.65;98690.19;10530235;28;20078;-73
2022/02/07 03:55:18;;;;;;;9.50;0.70;;;;;;;2.14;79.00;98690.16;10546532;28;20477;-73
2022/02/07 04:00:21;;;;;;;1.98;0.70;;;;;;;2.14;78.12;98711.72;10528012;28;20040;-74
2022/02/07 04:05:44;;;;;;;1.52;0.82;;;;;;;2.06;78.29;98712.75;10528216;28;20044;-74
2022/02/07 04:10:58;;;;;;;2.78;0.82;;;;;;;2.10;77.92;98724.78;10527959;28;20044;-74
2022/02/07 04:16:03;;;;;;;4.47;0.80;;;;;;;2.10;77.75;98740.34;10527451;28;20036;-74
2022/02/07 04:21:05;;;;;;;2.78;0.70;;;;;;;2.11;77.51;98755.00;10527702;28;20101;-73
2022/02/07 04:26:10;;;;;;;3.25;0.52;;;;;;;2.06;78.32;98772.38;10527992;28;20126;-73
2022/02/07 04:31:12;;;;;;;4.43;0.80;;;;;;;2.00;79.54;98781.13;10527694;28;20527;-74
2022/02/07 04:36:16;;;;;;;4.63;0.73;;;;;;;1.93;78.71;98806.25;10512459;28;20044;-74
2022/02/07 04:41:18;;;;;;;1.95;1.05;;;;;;;2.02;78.75;98816.47;10528094;28;20113;-73
2022/02/07 04:46:36;;;;;;;2.70;0.57;;;;;;;2.03;78.63;98844.09;10527569;28;20078;-74
2022/02/07 04:57:07;;;;;;;2.70;0.70;;;;;;;2.19;78.19;98877.56;10527218;28;20395;-73
2022/02/07 05:02:38;;;;;;;3.83;0.70;;;;;;;2.16;78.20;98875.88;10544434;28;20036;-73
2022/02/07 05:18:22;;;;;;;5.60;1.15;;;;;;;2.24;77.36;98930.19;10526327;28;20048;-73
2022/02/07 05:23:54;;;;;;;5.07;1.10;;;;;;;2.22;76.51;98953.56;10490529;28;20048;-74
2022/02/07 05:29:14;;;;;;;4.68;0.90;;;;;;;2.25;76.54;98971.66;10544663;28;20068;-73
2022/02/07 05:34:42;;;;;;;2.13;0.80;;;;;;;2.16;77.18;98984.75;10541438;28;20408;-74
2022/02/07 05:40:18;;;;;;;5.63;1.42;;;;;;;2.17;76.55;99004.63;10544177;28;20382;-73
2022/02/07 05:45:46;;;;;;;7.40;0.80;;;;;;;2.06;77.04;99016.88;10526953;28;20048;-73
2022/02/07 05:51:06;;;;;;;4.13;0.77;;;;;;;2.16;76.13;99033.16;10529057;28;20477;-72
2022/02/07 05:56:21;;;;;;;3.55;0.90;;;;;;;2.19;75.37;99048.69;10511837;28;20048;-74
2022/02/07 06:01:42;;;;;;;7.35;1.13;;;;;;;2.14;76.06;99055.66;10545768;28;20119;-73
2022/02/07 06:06:44;;;;;;;7.82;0.98;;;;;;;2.25;74.86;99064.13;10524903;28;20128;-74
2022/02/07 06:11:48;;;;;;;4.72;0.90;;;;;;;2.18;75.18;99091.91;10509535;28;20050;-73
2022/02/07 06:16:51;;;;;;;5.97;1.45;;;;;;;2.24;74.37;99109.09;10523291;28;20166;-72
2022/02/07 06:21:55;;;;;;;2.63;0.65;;;;;;;2.11;76.18;99125.69;10541720;28;20050;-73
2022/02/07 06:26:58;;;;;;;5.50;1.40;;;;;;;2.06;77.32;99156.84;10525871;28;20408;-73
2022/02/07 06:32:00;;;;;;;4.85;1.05;;;;;;;1.96;78.81;99174.25;10526235;28;20528;-72
2022/02/07 06:37:03;;;;;;;5.25;1.13;;;;;;;2.15;76.43;99185.25;10525858;28;20513;-74
2022/02/07 06:42:10;;;;;;;3.30;1.00;;;;;;;2.17;75.59;99201.69;10530524;28;20048;-73
2022/02/07 06:47:13;;;;;;;3.63;0.88;;;;;;;2.32;75.03;99202.38;10529599;28;20036;-74
2022/02/07 06:52:16;;;;;;;3.60;0.80;;;;;;;2.25;75.34;99219.72;10512829;28;20042;-73
2022/02/07 06:57:21;;;;;;;3.83;1.23;;;;;;;2.23;76.56;99218.91;10527159;28;20044;-73
2022/02/07 07:02:27;;;;;;;6.05;0.90;;;;;;;2.21;76.47;99237.06;10550992;28;20032;-73
2022/02/07 07:07:32;;;;;;;5.75;1.38;;;;;;;1.94;80.05;99245.09;10531773;28;20040;-74
2022/02/07 07:12:34;;;;;;;3.65;1.23;;;;;;;1.99;79.61;99248.50;10527193;28;20090;-74
2022/02/07 07:17:37;;;;;;;5.43;1.13;;;;;;;2.02;81.23;99264.03;10527644;28;20051;-73
2022/02/07 07:22:40;;;;;;;5.57;0.95;;;;;;;2.01;80.77;99273.56;10529898;28;20040;-73
2022/02/07 07:28:00;;;;;;;3.83;0.77;;;;;;;2.18;79.04;99275.13;10532401;28;20644;-74
2022/02/07 07:33:09;;;;;;;3.22;0.95;;;;;;;2.16;78.61;99289.81;10519624;28;20428;-73
2022/02/07 07:38:13;;;;;;;4.50;1.48;;;;;;;2.17;78.59;99305.41;10534307;28;20483;-73
2022/02/07 07:43:17;;;;;;;2.33;0.70;;;;;;;2.22;79.37;99313.97;10520596;28;20451;-72
2022/02/07 07:48:24;;;;;;;3.97;0.82;;;;;;;2.32;78.29;99325.13;10556273;28;20101;-73
2022/02/07 07:54:00;;;;;;;3.95;0.85;;;;;;;2.27;79.43;99334.69;10554075;28;20036;-74
2022/02/07 08:04:45;;;;;;;3.45;0.85;;;;;;;2.30;80.65;99364.91;10535934;28;20044;-73
2022/02/07 08:10:04;;;;;;;2.33;0.80;;;;;;;2.28;81.94;99378.75;10534300;28;20043;-73
2022/02/07 08:15:16;;;;;;;6.17;0.80;;;;;;;2.31;84.68;99401.22;10534452;28;20040;-73
2022/02/07 08:20:20;;;;;;;3.47;1.02;;;;;;;2.10;86.27;99391.00;10550718;28;20108;-73
2022/02/07 08:25:22;;;;;;;1.65;0.70;;;;;;;2.18;86.82;99413.41;10554121;28;20032;-74
2022/02/07 08:30:25;;;;;;;2.97;1.00;;;;;;;2.29;86.97;99426.28;10519433;28;20077;-73
2022/02/07 08:35:31;;;;;;;3.33;0.90;;;;;;;2.18;88.42;99449.72;10535124;28;20135;-73
2022/02/07 08:40:33;;;;;;;2.08;1.00;;;;;;;2.10;88.85;99454.09;10534997;28;20082;-73
2022/02/07 08:45:35;;;;;;;1.17;0.77;;;;;;;2.14;88.60;99463.56;10532134;28;20048;-74
2022/02/07 08:50:38;;;;;;;2.83;1.10;;;;;;;2.03;90.72;99481.75;10534112;28;20043;-73
2022/02/07 08:55:43;;;;;;;1.95;0.70;;;;;;;2.08;89.72;99481.75;10531754;28;20044;-73
2022/02/07 09:11:17;;;;;;;1.60;1.10;;;;;;;2.26;89.60;99514.50;10528224;28;20469;-75
2022/02/07 09:16:31;;;;;;;1.75;0.70;;;;;;;2.38;86.56;99527.34;10527577;28;20044;-74
2022/02/07 09:21:34;;;;;;;1.85;0.93;;;;;;;2.39;85.67;99551.56;10511942;28;20055;-74
2022/02/07 09:26:36;;;;;;;2.13;0.90;;;;;;;2.36;84.61;99568.03;10547294;28;20447;-74
2022/02/07 09:31:38;;;;;;;3.15;1.30;;;;;;;2.41;84.78;99566.25;10528595;28;20160;-74
2022/02/07 09:36:40;;;;;;;2.22;1.10;;;;;;;2.67;83.45;99583.38;10554804;22;20040;-70
2022/02/07 09:41:48;;;;;;;3.03;0.93;;;;;;;2.73;82.75;99585.94;10535566;28;20047;-69
2022/02/07 09:46:51;;;;;;;2.85;1.00;;;;;;;2.83;82.30;99600.56;10511056;28;20049;-69
2022/02/07 09:51:53;;;;;;;2.15;0.90;;;;;;;2.76;82.27;99611.88;10538077;28;20105;-69
2022/02/07 09:56:55;;;;;;;2.00;0.93;;;;;;;2.96;80.29;99604.78;10530724;28;20404;-69
2022/02/07 10:02:01;;;;;;;2.75;0.93;;;;;;;2.92;81.14;99610.00;10513441;28;20045;-69
2022/02/07 10:07:17;;;;;;;4.53;1.07;;;;;;;2.73;83.95;99630.91;10536819;28;20054;-68
2022/02/07 10:17:33;;;;;;;3.53;1.30;;;;;;;2.58;88.95;99654.38;10505313;28;20448;-68
2022/02/07 10:44:08;;;;;;;3.85;1.40;;;;;;;3.46;83.62;99686.66;10542049;28;20531;-69
2022/02/07 10:49:09;;;;;;;5.65;1.55;;;;;;;3.85;82.28;99692.34;10542442;28;20043;-69
2022/02/07 10:54:13;;;;;;;7.60;1.85;;;;;;;3.98;82.04;99700.88;10524291;28;20040;-69
2022/02/07 10:59:18;;;;;;;6.80;2.00;;;;;;;4.22;79.43;99707.56;10542870;28;20051;-70
2022/02/07 11:04:27;;;;;;;11.15;2.38;;;;;;;4.27;79.57;99714.44;10530449;28;20168;-68
2022/02/07 11:09:44;;;;;;;5.40;2.13;;;;;;;4.20;80.45;99730.09;10549716;28;20048;-68
2022/02/07 11:30:18;;;;;;;13.50;2.22;;;;;;;5.77;68.08;99729.69;10551831;28;20047;-69
2022/02/07 11:35:23;;;;;;;7.25;1.48;;;;;;;5.75;67.47;99740.09;10531437;28;20085;-69
2022/02/07 11:40:30;;;;;;;7.05;1.92;;;;;;;5.65;67.25;99764.63;10531154;28;20048;-71
2022/02/07 11:46:03;;;;;;;9.93;2.10;;;;;;;5.44;68.50;99760.59;10530252;28;20063;-71
2022/02/07 11:51:29;;;;;;;7.80;1.80;;;;;;;5.38;68.42;99759.84;10546721;28;20048;-70
2022/02/07 12:02:16;;;;;;;11.30;1.57;;;;;;;5.98;67.68;99780.66;10548165;28;20386;-69
2022/02/07 12:07:30;;;;;;;9.73;2.17;;;;;;;6.01;65.69;99815.38;10546403;28;20051;-70
2022/02/07 12:12:43;;;;;;;9.82;1.77;;;;;;;5.73;66.31;99804.50;10546732;28;20093;-70
2022/02/07 12:17:47;;;;;;;13.20;2.33;;;;;;;5.55;66.13;99830.84;10533054;28;20066;-71
2022/02/07 12:23:11;;;;;;;6.55;1.98;;;;;;;5.53;64.30;99819.56;10498668;28;20071;-69
2022/02/07 12:28:19;;;;;;;12.82;2.65;;;;;;;5.32;64.76;99829.44;10523433;28;20497;-69
2022/02/07 12:33:21;;;;;;;6.43;2.22;;;;;;;5.44;65.57;99845.78;10527929;28;20048;-69
2022/02/07 12:38:33;;;;;;;11.63;2.20;;;;;;;5.23;64.27;99859.97;10528424;28;20048;-69
2022/02/07 12:43:38;;;;;;;13.77;2.77;;;;;;;5.22;64.38;99853.91;10529471;28;20093;-69
2022/02/07 12:48:49;;;;;;;11.30;1.83;;;;;;;5.26;64.32;99865.97;10527945;28;20040;-69
2022/02/07 12:53:53;;;;;;;9.88;2.58;;;;;;;5.60;63.91;99878.56;10547166;28;20040;-70
2022/02/07 12:58:55;;;;;;;13.80;3.17;;;;;;;5.75;63.79;99886.16;10528589;28;20063;-70
2022/02/07 13:04:03;;;;;;;11.45;3.28;;;;;;;5.77;64.87;99896.59;10545432;28;20102;-70
2022/02/07 13:09:14;;;;;;;10.35;1.90;;;;;;;5.70;63.06;99908.00;10546431;28;20470;-69
2022/02/07 13:14:16;;;;;;;7.82;1.90;;;;;;;5.77;61.09;99931.38;10546628;28;20103;-69
2022/02/07 13:19:20;;;;;;;11.73;2.50;;;;;;;5.72;59.74;99929.72;10548922;28;20050;-69
2022/02/07 13:24:30;;;;;;;7.85;1.83;;;;;;;5.63;58.41;99930.69;10544261;28;20036;-69
2022/02/07 13:29:41;;;;;;;11.68;2.20;;;;;;;5.83;57.74;99935.63;10545833;28;20397;-69
2022/02/07 13:34:45;;;;;;;22.70;3.05;;;;;;;5.53;58.24;99937.78;10527433;28;20059;-70
2022/02/07 13:40:00;;;;;;;8.40;3.30;;;;;;;5.57;58.90;99938.56;10544827;28;20055;-71
2022/02/07 13:45:08;;;;;;;18.23;4.18;;;;;;;5.17;61.13;99954.69;10528065;28;20048;-70
2022/02/07 13:50:16;;;;;;;10.35;1.83;;;;;;;4.19;69.47;100049.25;10546713;28;20068;-69
2022/02/07 13:55:28;;;;;;;5.68;1.00;;;;;;;2.62;78.70;100073.88;10545143;28;20048;-68
2022/02/07 14:00:35;;;;;;;4.95;1.05;;;;;;;2.33;82.86;100055.66;10544788;28;20139;-69
2022/02/07 14:05:43;;;;;;;3.60;0.85;;;;;;;2.12;84.44;100038.31;10526103;28;20371;-68
2022/02/07 14:10:45;;;;;;;3.47;0.43;;;;;;;2.21;83.81;100030.59;10527103;28;20040;-70
2022/02/07 14:15:47;;;;;;;1.40;0.50;;;;;;;2.29;82.73;100022.78;10544691;28;20047;-69
2022/02/07 14:20:49;;;;;;;2.92;0.60;;;;;;;2.35;83.10;100046.16;10528315;28;20078;-68
2022/02/07 14:25:59;;;;;;;3.83;1.20;;;;;;;2.62;81.38;100067.81;10543912;28;20044;-71
2022/02/07 14:31:02;;;;;;;4.80;1.50;;;;;;;2.86;79.14;100067.81;10524335;28;20077;-69
2022/02/07 14:36:03;;;;;;;5.35;1.67;;;;;;;3.24;78.28;100077.34;10544275;28;20489;-68
2022/02/07 14:41:06;;;;;;;8.68;2.10;;;;;;;3.45;76.38;100085.09;10532809;28;20071;-68
2022/02/07 14:46:10;;;;;;;5.85;1.70;;;;;;;3.32;78.09;100093.78;10550868;28;20040;-68
2022/02/07 14:51:12;;;;;;;10.43;2.35;;;;;;;3.45;77.60;100116.28;10552681;28;20058;-68
2022/02/07 14:56:14;;;;;;;4.40;1.40;;;;;;;3.42;77.69;100118.88;10551723;28;20436;-68
2022/02/07 15:01:15;;;;;;;7.80;2.05;;;;;;;3.59;75.58;100136.19;10550525;28;20381;-68
2022/02/07 15:06:17;;;;;;;14.63;2.88;;;;;;;3.70;74.44;100137.00;10550401;28;20044;-68
2022/02/07 15:11:19;;;;;;;17.63;2.47;;;;;;;3.86;73.99;100132.66;10552080;28;20070;-69
2022/02/07 15:16:21;;;;;;;18.00;2.85;;;;;;;3.79;73.93;100131.78;10549772;28;20047;-68
2022/02/07 15:21:23;;;;;;;16.52;2.55;;;;;;;3.68;75.57;100164.75;10533325;28;20048;-69
2022/02/07 15:26:25;;;;;;;16.10;3.13;;;;;;;3.58;76.39;100168.22;10532981;28;20528;-69
2022/02/07 15:31:31;;;;;;;20.05;3.70;;;;;;;3.72;75.44;100150.88;10551142;28;20043;-69
2022/02/07 15:36:33;;;;;;;12.32;3.53;;;;;;;3.71;74.28;100151.72;10513989;22;20049;-77
2022/02/07 15:41:36;;;;;;;17.98;2.33;;;;;;;3.78;71.91;100159.53;10474130;28;20064;-77
2022/02/07 15:46:37;;;;;;;14.73;3.17;;;;;;;3.88;70.46;100175.97;10458255;28;20056;-77
2022/02/07 15:51:40;;;;;;;13.70;4.13;;;;;;;3.77;72.79;100186.41;10478375;28;20048;-77
2022/02/07 15:56:42;;;;;;;18.75;4.55;;;;;;;3.70;72.91;100221.06;10458280;28;20040;-76
2022/02/07 16:01:43;;;;;;;9.15;2.92;;;;;;;3.33;77.39;100264.38;10473158;28;20048;-77
2022/02/07 16:06:45;;;;;;;7.32;2.67;;;;;;;3.23;78.95;100253.13;10467669;28;20107;-77
2022/02/07 16:11:47;;;;;;;6.10;2.28;;;;;;;3.17;78.86;100258.28;10459256;28;20049;-76
2022/02/07 16:16:50;;;;;;;9.30;3.08;;;;;;;2.92;79.97;100282.44;10448937;28;20049;-76
2022/02/07 16:21:52;;;;;;;8.48;3.67;;;;;;;2.93;80.28;100298.06;10430008;28;20056;-76
2022/02/07 16:26:54;;;;;;;7.80;3.67;;;;;;;2.86;79.29;100318.78;10450149;28;20516;-77
2022/02/07 16:31:55;;;;;;;7.35;2.03;;;;;;;3.01;77.89;100317.13;10470661;28;20048;-76
2022/02/07 16:36:57;;;;;;;5.80;1.50;;;;;;;3.19;75.25;100328.44;10452558;28;20079;-76
2022/02/07 16:41:59;;;;;;;9.80;1.60;;;;;;;3.22;74.57;100338.81;10441748;28;20414;-77
2022/02/07 16:47:02;;;;;;;14.63;2.15;;;;;;;3.08;75.33;100364.75;10424965;28;20053;-77
2022/02/07 16:52:03;;;;;;;8.23;1.27;;;;;;;3.21;74.24;100381.25;10390040;28;20068;-76
2022/02/07 16:57:05;;;;;;;11.73;1.67;;;;;;;3.09;74.27;100396.78;10428159;28;20049;-78
2022/02/07 17:02:07;;;;;;;5.28;1.58;;;;;;;2.99;74.11;100403.69;10440993;28;20060;-76
2022/02/07 17:07:08;;;;;;;5.55;1.58;;;;;;;2.99;73.61;100432.25;10424590;28;20151;-76
2022/02/07 17:12:12;;;;;;;10.45;2.60;;;;;;;2.80;73.92;100449.44;10452106;28;20587;-77
2022/02/07 17:17:13;;;;;;;10.25;4.70;;;;;;;2.77;73.44;100446.81;10461504;28;20100;-77
2022/02/07 17:22:15;;;;;;;6.93;1.58;;;;;;;2.70;73.80;100465.81;10417170;28;20060;-77
2022/02/07 17:27:23;;;;;;;10.15;2.75;;;;;;;2.77;73.82;100472.78;10430584;28;20103;-77
2022/02/07 17:32:25;;;;;;;5.53;1.55;;;;;;;2.70;74.19;100471.00;10411018;28;20049;-76
2022/02/07 17:37:27;;;;;;;8.43;1.75;;;;;;;2.69;74.51;100493.50;10388658;28;20045;-76
2022/02/07 17:42:29;;;;;;;7.22;1.38;;;;;;;2.77;74.33;100506.53;10431751;28;20045;-78
2022/02/07 17:47:31;;;;;;;6.47;2.22;;;;;;;2.81;73.46;100504.84;10427253;28;20041;-77
2022/02/07 17:52:32;;;;;;;7.22;1.88;;;;;;;2.68;74.40;100509.94;10409198;28;20067;-77
2022/02/07 17:57:35;;;;;;;9.85;1.98;;;;;;;2.75;74.62;100526.44;10427943;28;20045;-76
2022/02/07 18:02:36;;;;;;;8.68;1.83;;;;;;;2.82;74.06;100522.16;10427088;28;20045;-76
2022/02/07 18:07:38;;;;;;;14.93;1.83;;;;;;;2.73;74.44;100517.75;10394653;28;20041;-76
2022/02/07 18:12:41;;;;;;;6.07;1.52;;;;;;;2.89;74.06;100523.94;10466009;28;20407;-77
2022/02/07 18:17:43;;;;;;;16.15;2.47;;;;;;;2.86;74.38;100519.59;10448746;28;20037;-78
2022/02/07 18:22:51;;;;;;;10.70;2.08;;;;;;;3.05;74.10;100530.97;10467444;28;20067;-77
2022/02/07 18:27:55;;;;;;;7.35;1.88;;;;;;;3.04;73.72;100545.66;10433379;28;20056;-77
2022/02/07 18:32:59;;;;;;;7.25;1.67;;;;;;;2.87;73.87;100544.69;10447209;28;20045;-75
2022/02/07 18:38:00;;;;;;;13.18;2.00;;;;;;;2.96;72.58;100552.53;10463811;28;20092;-76
2022/02/07 18:43:06;;;;;;;9.15;2.75;;;;;;;2.85;71.99;100571.50;10446209;28;20060;-77
2022/02/07 18:48:09;;;;;;;10.63;1.77;;;;;;;3.00;70.93;100589.78;10449824;28;20033;-76
2022/02/07 18:53:11;;;;;;;9.27;1.45;;;;;;;2.97;71.01;100585.47;10444023;28;20052;-76
2022/02/07 19:03:31;;;;;;;7.32;1.58;;;;;;;2.87;71.45;100593.16;10463764;28;20047;-76
2022/02/07 19:08:33;;;;;;;8.02;1.70;;;;;;;2.83;71.31;100605.22;10464640;28;20124;-76
2022/02/07 19:13:35;;;;;;;6.40;1.55;;;;;;;2.69;72.46;100622.41;10465258;28;20057;-75
2022/02/07 19:18:47;;;;;;;7.43;2.35;;;;;;;2.59;73.20;100637.03;10463430;28;20041;-75
2022/02/07 19:23:54;;;;;;;8.00;1.60;;;;;;;2.71;73.44;100644.06;10469468;28;20037;-75
2022/02/07 19:29:15;;;;;;;6.05;1.52;;;;;;;2.70;73.90;100655.28;10455973;28;20052;-75
2022/02/07 19:34:35;;;;;;;4.68;1.13;;;;;;;2.61;75.35;100668.19;10473443;28;20041;-74
2022/02/07 19:39:37;;;;;;;7.35;1.38;;;;;;;2.68;76.01;100665.66;10470553;28;20045;-76
2022/02/07 19:44:48;;;;;;;5.10;1.55;;;;;;;2.51;77.26;100665.47;10471263;28;20514;-76
2022/02/07 19:49:50;;;;;;;9.15;2.17;;;;;;;2.55;77.53;100686.28;10470805;28;20079;-76
2022/02/07 19:54:51;;;;;;;7.70;1.95;;;;;;;2.70;77.35;100686.44;10456119;28;20068;-76
2022/02/07 19:59:54;;;;;;;7.57;1.70;;;;;;;2.65;77.43;100698.50;10453206;28;20110;-75
2022/02/07 20:04:57;;;;;;;7.63;1.85;;;;;;;2.69;77.09;100698.56;10471434;28;20052;-75
2022/02/07 20:09:59;;;;;;;7.78;1.70;;;;;;;2.75;77.03;100708.16;10454272;28;20049;-75
2022/02/07 20:15:00;;;;;;;7.07;1.77;;;;;;;2.97;75.67;100714.44;10440301;28;20045;-75
2022/02/07 20:20:03;;;;;;;11.20;2.20;;;;;;;2.96;76.42;100729.13;10471133;28;20055;-75
2022/02/07 20:25:05;;;;;;;7.43;1.83;;;;;;;2.98;76.53;100732.63;10469722;28;20044;-75
2022/02/07 20:30:07;;;;;;;14.18;2.15;;;;;;;3.18;75.61;100737.13;10471120;28;20118;-75
2022/02/07 20:35:10;;;;;;;10.77;2.63;;;;;;;3.17;75.96;100738.00;10457380;28;20445;-75
2022/02/07 20:40:12;;;;;;;9.35;2.03;;;;;;;3.14;75.80;100741.44;10453547;28;20055;-74
2022/02/07 20:45:15;;;;;;;11.75;2.15;;;;;;;3.15;75.67;100751.00;10470028;28;20045;-75
2022/02/07 20:50:17;;;;;;;7.78;1.80;;;;;;;3.24;74.38;100740.69;10469367;28;20059;-74
2022/02/07 20:55:18;;;;;;;7.75;2.25;;;;;;;3.09;74.69;100755.22;10451808;28;20053;-74
2022/02/07 21:00:41;;;;;;;10.90;3.08;;;;;;;3.09;74.59;100776.88;10454922;28;20052;-75
2022/02/07 21:05:46;;;;;;;7.57;1.33;;;;;;;3.06;74.53;100781.19;10469259;28;20044;-75
2022/02/07 21:10:48;;;;;;;16.50;2.65;;;;;;;3.20;73.12;100795.19;10452905;28;20049;-74
2022/02/07 21:15:50;;;;;;;8.75;1.75;;;;;;;3.05;74.04;100798.47;10440879;28;20045;-74
2022/02/07 21:20:52;;;;;;;8.15;1.92;;;;;;;3.23;73.08;100808.19;10474811;28;20521;-74
2022/02/07 21:25:54;;;;;;;10.35;2.13;;;;;;;3.13;73.84;100817.63;10450853;28;20044;-76
2022/02/07 21:30:55;;;;;;;12.65;2.03;;;;;;;3.44;72.00;100821.41;10468998;28;20471;-76
2022/02/07 21:35:58;;;;;;;11.23;1.90;;;;;;;3.37;72.60;100830.03;10517817;22;20036;-76
2022/02/07 21:40:59;;;;;;;7.05;1.58;;;;;;;3.30;72.53;100825.59;10526903;28;20078;-76
2022/02/07 21:51:08;;;;;;;7.22;1.52;;;;;;;3.28;72.89;100835.13;10542755;28;20135;-75
2022/02/07 21:56:10;;;;;;;9.75;2.08;;;;;;;3.18;73.39;100838.47;10523506;28;20040;-74
2022/02/07 22:01:12;;;;;;;10.70;1.70;;;;;;;3.20;73.29;100832.44;10542692;28;20424;-75
2022/02/07 22:06:17;;;;;;;8.18;2.58;;;;;;;3.30;73.18;100838.59;10541501;28;20040;-74
2022/02/07 22:11:35;;;;;;;6.68;1.25;;;;;;;3.15;73.89;100835.84;10523392;28;20122;-75
2022/02/07 22:16:38;;;;;;;6.88;1.70;;;;;;;3.14;74.93;100853.13;10522693;28;20035;-73
2022/02/07 22:21:40;;;;;;;7.72;1.40;;;;;;;3.07;75.08;100851.34;10541472;28;20528;-74
2022/02/07 22:26:46;;;;;;;14.10;1.90;;;;;;;3.09;75.41;100859.13;10540997;28;20044;-75
2022/02/07 22:31:50;;;;;;;11.65;2.28;;;;;;;3.21;75.00;100864.47;10541244;28;20089;-74
2022/02/07 22:36:55;;;;;;;15.15;1.85;;;;;;;3.30;75.13;100874.97;10541459;28;20074;-73
2022/02/07 22:41:57;;;;;;;5.40;1.63;;;;;;;3.22;75.38;100876.63;10523395;28;20064;-74
2022/02/07 22:46:59;;;;;;;9.38;1.42;;;;;;;3.08;76.72;100878.19;10523527;28;20040;-73
2022/02/07 22:52:01;;;;;;;13.27;2.38;;;;;;;3.25;76.25;100874.06;10541744;28;20051;-72
2022/02/07 22:57:03;;;;;;;10.98;1.58;;;;;;;3.16;77.30;100873.97;10544204;28;20044;-74
2022/02/07 23:02:06;;;;;;;6.50;1.60;;;;;;;3.00;78.22;100884.13;10548964;28;20113;-73
2022/02/07 23:07:15;;;;;;;9.80;1.67;;;;;;;3.01;78.76;100895.41;10531220;28;20044;-77
2022/02/07 23:12:26;;;;;;;8.75;1.63;;;;;;;3.19;77.96;100889.59;10549736;28;20101;-76
2022/02/07 23:17:45;;;;;;;7.15;2.30;;;;;;;2.99;79.39;100897.13;10549820;28;20059;-75
2022/02/07 23:38:38;;;;;;;8.38;2.15;;;;;;;2.96;79.89;100931.69;10548382;28;20535;-75
2022/02/07 23:43:45;;;;;;;11.23;2.30;;;;;;;2.93;80.93;100926.50;10530194;28;20101;-73
2022/02/07 23:59:46;;;;;;;11.23;2.42;;;;;;;2.80;81.82;100924.56;10336729;28;20055;-73
